Sunday, July 22, 2018, 12:08 PM EDT
Back to Local

KIAG, Niagara Falls International Airport

Location: Niagara Falls, NY, United States Lat: 43.117
Local Time: 12:08 PM EDT (16:08 GMT) Lon: -78.933
Time Zone: US/Eastern Elev: 583 ft

Show me the last for .
Show Coded

Time T Td Feel RH Dir Speed Gust Alt SLP Vis Weather Sky Remarks
2018-07-22 11:53 70 62 - 76 130° 12 - 29.72 29.71 10 BKN014 OVC022 None
2018-07-22 11:00 67 62 - 84 100° 14 - 29.71 - 10 OVC014 None
2018-07-22 10:53 67 62 - 84 110° 14 - 29.70 29.69 10 BKN009 OVC020 6-hr Precip Total (11am): 0.01"
2018-07-22 09:53 66 63 - 89 80° 16 23 29.70 29.69 10 BKN009 OVC020 Peak wind: 34 mph (30 kts) from 70° at 59 min
1-hr Precip Total: 0.01"
2018-07-22 08:53 65 63 - 93 80° 18 - 29.70 29.69 10 BKN009 BKN043 OVC065 1-hr Precip Total: Trace
2018-07-22 07:53 63 62 - 96 60° 16 - 29.72 29.71 3 RA BR OVC008 1-hr Precip Total: 0.25"
6-hr Precip Total (8am): 0.74"
24-hr Precip Total (8am): 0.87"
6-hr Min Temp (8am): 60.1°F
6-hr Max Temp (8am): 63.0°F
2018-07-22 07:50 63 63 - 100 50° 13 - 29.72 - 2 RA BR OVC008 1-hr Precip Total: 0.25"
2018-07-22 06:53 63 62 - 96 40° 15 - 29.75 29.74 1 +RA BR BKN006 BKN017 OVC033 1-hr Precip Total: 0.24"
2018-07-22 06:44 62 61 - 96 30° 14 - 29.76 - 1 +RA BR FEW006 SCT017 OVC033 1-hr Precip Total: 0.18"
2018-07-22 06:39 62 61 - 96 30° 15 - 29.76 - 2 +RA BR SCT006 BKN026 OVC037 1-hr Precip Total: 0.13"
2018-07-22 06:37 62 61 - 96 30° 13 - 29.76 - 3 +RA BR SCT005 BKN014 OVC041 1-hr Precip Total: 0.12"
2018-07-22 06:19 62 61 - 96 20° 13 - 29.76 - 4 RA BR FEW005 BKN015 OVC038 1-hr Precip Total: 0.05"
2018-07-22 06:11 62 61 - 96 30° 14 - 29.77 - 2 RA BR FEW005 BKN020 OVC038 1-hr Precip Total: 0.04"
2018-07-22 06:04 62 60 - 93 30° 13 - 29.78 - 2 RA BR FEW013 BKN019 OVC040 1-hr Precip Total: 0.03"
2018-07-22 05:53 62 60 - 93 30° 13 - 29.78 29.77 3 RA BR FEW012 SCT018 OVC040 1-hr Precip Total: 0.10"
2018-07-22 05:37 61 59 - 93 40° 14 - 29.79 - 5 -RA BR FEW009 SCT026 OVC040 1-hr Precip Total: 0.08"
2018-07-22 05:29 60 58 - 92 40° 9 - 29.80 - 2 RA BR FEW009 SCT016 OVC040 1-hr Precip Total: 0.07"
2018-07-22 04:53 60 58 - 92 50° 10 - 29.82 29.80 5 RA BR BKN042 OVC060 1-hr Precip Total: 0.05"
6-hr Precip Total (5am): 0.15"
2018-07-22 03:53 61 58 - 89 50° 8 - 29.84 29.83 6 RA BR OVC080 1-hr Precip Total: 0.09"
2018-07-22 02:53 61 58 - 89 60° 8 - 29.86 29.85 10 -RA BKN055 OVC120 1-hr Precip Total: 0.01"
2018-07-22 01:53 60 56 - 86 90° 3 - 29.87 29.86 10 OVC040 1-hr Precip Total: 0.05"
6-hr Precip Total (2am): 0.13"
6-hr Min Temp (2am): 59.0°F
6-hr Max Temp (2am): 75.9°F
2018-07-22 00:53 60 56 - 86 110° 16 - 29.90 29.89 5 -RA BR FEW043 BKN055 OVC075 1-hr Precip Total: 0.08"
24-hr Min Temp (1am): 60.1°F
24-hr Max Temp (1am): 84.9°F
2018-07-21 23:53 64 57 - 77 120° 13 - 29.91 29.90 10 -RA FEW080 BKN110 1-hr Precip Total: Trace
2018-07-21 22:53 67 57 - 70 140° 9 21 29.92 29.90 10 -RA FEW090 SCT120 1-hr Precip Total: Trace
6-hr Precip Total (11pm): 0.00"
2018-07-21 21:53 70 55 - 59 140° 10 - 29.92 29.90 10 FEW100 1-hr Precip Total: Trace
2018-07-21 20:53 74 57 77 55 120° 18 23 29.90 29.89 10 CLR None
2018-07-21 19:53 76 58 78 53 130° 12 - 29.88 29.87 10 CLR 6-hr Precip Total (8pm): 0.00"
6-hr Min Temp (8pm): 75.9°F
6-hr Max Temp (8pm): 84.9°F
2018-07-21 18:53 78 59 80 51 120° 16 23 29.88 29.86 10 OVC049 None
2018-07-21 17:53 82 61 83 49 130° 14 22 29.87 29.85 10 SCT049 None
2018-07-21 16:53 84 62 85 47 140° 12 - 29.87 29.85 10 SCT047 BKN095 6-hr Precip Total (5pm): 0.00"
2018-07-21 15:53 81 61 82 50 110° 10 - 29.88 29.85 10 FEW045 BKN080 1-hr Precip Total: Trace
2018-07-21 14:53 79 61 81 54 90° 8 - 29.88 29.86 10 -RA BKN065 1-hr Precip Total: Trace
2018-07-21 13:53 80 61 81 52 Variable 6 - 29.89 29.87 10 FEW045 BKN060 OVC075 6-hr Min Temp (2pm): 72.0°F
6-hr Max Temp (2pm): 82.9°F
2018-07-21 12:53 80 61 81 52 150° 6 - 29.90 29.88 10 OVC075 None

Support USWX by starting your Amazon purchase here.